North Creek, NY (12853)

4:59 AM EDT on July 26, 2016 (GMT -0400)
Old River Road | | Change Station

Elev 1030 ft 43.71 °N, 73.99 °W | Updated 14 seconds ago

Clear
Clear
69.4 °F
Feels Like 69.4 °F
N
0.0
Wind Variable Wind from East
Gusts 4.0 mph

Today
High -- | Low -- °F
--% Chance of Precip.
Yesterday
High -- | Low -- °F
Precip. -- in
Pressure 29.81 in
Visibility 7.0 miles
Clouds Clear
Dew Point 62 °F
Humidity 76%
Rainfall 0.00 in
Snow Depth Not available.
5:38 AM 8:24 PM
Waning Gibbous, 57% visible
METAR KGFL 260853Z AUTO 22004KT 7SM CLR 20/18 A2981 RMK AO2 SLP092 T02000183 53002
Pressure 29.81 in
Visibility 7.0 miles
Clouds Clear
Dew Point 62 °F
Humidity 76%
Rainfall 0.00 in
Snow Depth Not available.
5:38 AM 8:24 PM
Waning Gibbous, 57% visible
METAR KGFL 260853Z AUTO 22004KT 7SM CLR 20/18 A2981 RMK AO2 SLP092 T02000183 53002

10-Day Weather Forecast

Almanac

Astronomy

Jul. 26, 2016 Rise Set
Actual Time
Civil Twilight
Nautical Twilight
Astronomical Twilight
Moon
Length of Visible Light
Length of Day
Tomorrow will be .
, % of the Moon is Illuminated

Today's Extremes

State Highs State Lows

Community

WunderPhotos

Upload Photos

1,927,556 photos uploaded!

WunderBlog® & News

Nearby

Air Quality

  Air Quality AQ Index Pollutant
Not available.

Snow Depth

Station Depth Elevation

Earthquake Activity

City Distance Mag. Time & Date
Minimum magnitude displayed is 2.5.

Coastal Water Temperatures

Place Temperature

Stations

Nearby Weather Stations

Station Location Temp. Windchill Dew Point Humidity Wind Precip. Elev Updated Type
                   

Watches & Warnings

There are currently no watches in effect.